Time;durP1;ratioP1;P1;durP2;ratioP2;P2;SDS_P1;SDS_P2;PMS_P1;PMS_P2;Temp;Humidity;BMP_temperature;BMP_pressure;BME280_temperature;BME280_humidity;BME280_pressure;Samples;Min_cycle;Max_cycle;Signal;HPM_P1;HPM_P2
2021/07/15 00:00:33;;;;;;;43.13;30.00;;;;;;;;;;5074446;28;20035;-83
2021/07/15 00:03:05;;;;;;;47.80;29.70;;;;;;;;;;5080739;28;20044;-83
2021/07/15 00:05:32;;;;;;;40.35;29.20;;;;;;;;;;5079929;28;20123;-83
2021/07/15 00:08:00;;;;;;;39.38;26.75;;;;;;;;;;5083168;28;20051;-83
2021/07/15 00:10:36;;;;;;;33.08;25.85;;;;;;;;;;5085773;28;20048;-82
2021/07/15 00:13:04;;;;;;;48.05;27.75;;;;;;;;;;5079036;28;20043;-83
2021/07/15 00:15:35;;;;;;;35.20;26.40;;;;;;;;;;5071912;28;20154;-83
2021/07/15 00:18:02;;;;;;;38.10;27.30;;;;;;;;;;5063956;28;20040;-85
2021/07/15 00:20:29;;;;;;;39.72;26.90;;;;;;;;;;5085967;28;20047;-83
2021/07/15 00:22:56;;;;;;;38.35;27.13;;;;;;;;;;5093978;28;20038;-81
2021/07/15 00:25:22;;;;;;;36.97;26.73;;;;;;;;;;5069783;28;20063;-81
2021/07/15 00:27:50;;;;;;;38.67;28.25;;;;;;;;;;5072755;28;20054;-81
2021/07/15 00:30:17;;;;;;;39.72;27.35;;;;;;;;;;5050807;28;20053;-82
2021/07/15 00:32:45;;;;;;;33.50;25.33;;;;;;;;;;5082094;28;20116;-81
2021/07/15 00:35:12;;;;;;;33.10;26.05;;;;;;;;;;5077204;28;20050;-82
2021/07/15 00:37:39;;;;;;;36.05;25.33;;;;;;;;;;5080839;28;20084;-82
2021/07/15 00:40:09;;;;;;;32.72;25.35;;;;;;;;;;5092182;28;20032;-82
2021/07/15 00:42:36;;;;;;;36.72;25.15;;;;;;;;;;5075666;28;20035;-82
2021/07/15 00:45:05;;;;;;;40.50;24.75;;;;;;;;;;5087454;28;20040;-81
2021/07/15 00:47:32;;;;;;;34.15;26.45;;;;;;;;;;5084623;28;20127;-82
2021/07/15 00:49:59;;;;;;;38.33;27.08;;;;;;;;;;5076593;28;20057;-82
2021/07/15 00:52:25;;;;;;;34.15;25.00;;;;;;;;;;5075279;27;20040;-81
2021/07/15 00:54:53;;;;;;;37.38;25.67;;;;;;;;;;5076275;28;20051;-81
2021/07/15 00:57:19;;;;;;;35.60;25.65;;;;;;;;;;5051314;28;20055;-81
2021/07/15 00:59:48;;;;;;;33.55;23.13;;;;;;;;;;5043880;28;20126;-81
2021/07/15 01:02:15;;;;;;;34.83;24.27;;;;;;;;;;5046848;28;20132;-80
2021/07/15 01:04:42;;;;;;;30.52;21.83;;;;;;;;;;5042522;28;20538;-81
2021/07/15 01:07:09;;;;;;;34.95;22.27;;;;;;;;;;5064627;28;20128;-82
2021/07/15 01:09:36;;;;;;;27.98;21.45;;;;;;;;;;5059708;28;20170;-81
2021/07/15 01:12:21;;;;;;;32.60;21.73;;;;;;;;;;5069160;28;20063;-82
2021/07/15 01:14:55;;;;;;;35.33;24.00;;;;;;;;;;5069253;28;20131;-83
2021/07/15 01:17:29;;;;;;;34.83;24.38;;;;;;;;;;5073609;28;20119;-82
2021/07/15 01:20:05;;;;;;;34.90;24.65;;;;;;;;;;5067322;28;20177;-82
2021/07/15 01:22:36;;;;;;;38.03;24.50;;;;;;;;;;5072983;28;20048;-82
2021/07/15 01:25:11;;;;;;;35.42;24.48;;;;;;;;;;5086013;28;20040;-83
2021/07/15 01:27:50;;;;;;;40.22;25.55;;;;;;;;;;5100928;28;20093;-83
2021/07/15 01:30:26;;;;;;;38.25;24.73;;;;;;;;;;5085325;28;20126;-83
2021/07/15 01:33:07;;;;;;;42.38;25.80;;;;;;;;;;5085559;28;20039;-83
2021/07/15 01:35:53;;;;;;;44.22;26.45;;;;;;;;;;5080279;28;20048;-83
2021/07/15 01:38:45;;;;;;;46.75;27.42;;;;;;;;;;5066346;28;20065;-83
2021/07/15 01:41:15;;;;;;;50.72;27.75;;;;;;;;;;5070523;28;20123;-83
2021/07/15 01:43:45;;;;;;;46.85;26.95;;;;;;;;;;5083577;28;20035;-83
2021/07/15 01:46:13;;;;;;;47.17;28.67;;;;;;;;;;5082432;28;20569;-83
2021/07/15 01:48:41;;;;;;;40.42;23.88;;;;;;;;;;5083374;28;20072;-83
2021/07/15 01:51:09;;;;;;;34.25;21.77;;;;;;;;;;5074080;28;20040;-83
2021/07/15 01:53:37;;;;;;;31.33;21.83;;;;;;;;;;5082744;28;20119;-83
2021/07/15 01:56:06;;;;;;;32.80;21.75;;;;;;;;;;5073278;28;20094;-83
2021/07/15 01:58:36;;;;;;;33.08;20.85;;;;;;;;;;5075135;28;20048;-83
2021/07/15 02:01:06;;;;;;;27.38;19.63;;;;;;;;;;5079894;28;20045;-83
2021/07/15 02:03:34;;;;;;;30.17;21.23;;;;;;;;;;5064820;28;20040;-83
2021/07/15 02:06:01;;;;;;;31.27;22.40;;;;;;;;;;5065103;28;20048;-83
2021/07/15 02:08:29;;;;;;;35.80;22.33;;;;;;;;;;5064867;28;20036;-83
2021/07/15 02:10:56;;;;;;;29.73;21.73;;;;;;;;;;5079631;28;20100;-83
2021/07/15 02:13:24;;;;;;;29.70;22.15;;;;;;;;;;5064731;28;20044;-83
2021/07/15 02:15:52;;;;;;;31.17;22.90;;;;;;;;;;5073154;28;20487;-83
2021/07/15 02:18:22;;;;;;;30.98;21.63;;;;;;;;;;5072312;28;20048;-83
2021/07/15 02:20:53;;;;;;;28.48;21.83;;;;;;;;;;5083734;28;20049;-83
2021/07/15 02:23:20;;;;;;;31.30;21.10;;;;;;;;;;5064609;28;20041;-83
2021/07/15 02:25:54;;;;;;;25.98;21.33;;;;;;;;;;5064321;28;20044;-83
2021/07/15 02:28:22;;;;;;;28.23;21.48;;;;;;;;;;5063945;28;20085;-82
2021/07/15 02:30:53;;;;;;;32.67;23.13;;;;;;;;;;5064420;28;20471;-82
2021/07/15 02:33:24;;;;;;;29.38;21.08;;;;;;;;;;5064079;28;20036;-82
2021/07/15 02:35:54;;;;;;;32.17;22.67;;;;;;;;;;5068274;28;20036;-83
2021/07/15 02:38:23;;;;;;;32.05;23.63;;;;;;;;;;5084954;28;20116;-83
2021/07/15 02:40:51;;;;;;;37.53;29.38;;;;;;;;;;5063371;28;20503;-83
2021/07/15 02:43:18;;;;;;;39.15;30.10;;;;;;;;;;5072009;28;20048;-83
2021/07/15 02:45:44;;;;;;;50.50;39.92;;;;;;;;;;5084927;28;20127;-83
2021/07/15 02:48:12;;;;;;;64.47;50.70;;;;;;;;;;5082101;28;20036;-83
2021/07/15 02:50:38;;;;;;;77.20;63.45;;;;;;;;;;5084450;28;22513;-83
2021/07/15 02:53:05;;;;;;;68.57;55.38;;;;;;;;;;5084082;28;20039;-83
2021/07/15 02:55:32;;;;;;;65.47;52.05;;;;;;;;;;5077001;28;20047;-83
2021/07/15 02:58:17;;;;;;;56.70;44.40;;;;;;;;;;5084001;28;20060;-82
2021/07/15 03:01:05;;;;;;;51.65;39.88;;;;;;;;;;5070651;28;20210;-83
2021/07/15 03:03:42;;;;;;;41.22;29.95;;;;;;;;;;5063655;28;20048;-83
2021/07/15 03:06:14;;;;;;;37.53;28.75;;;;;;;;;;5078495;28;20493;-83
2021/07/15 03:08:56;;;;;;;41.85;30.67;;;;;;;;;;5063156;28;20101;-83
2021/07/15 03:11:32;;;;;;;42.92;30.75;;;;;;;;;;5063334;28;20067;-83
2021/07/15 03:14:03;;;;;;;42.05;31.55;;;;;;;;;;5063404;28;20045;-84
2021/07/15 03:16:31;;;;;;;52.05;36.50;;;;;;;;;;5063354;28;20046;-83
2021/07/15 03:18:57;;;;;;;;;;;;;;;;;;5065098;28;20041;-83
2021/07/15 03:21:26;;;;;;;48.90;35.97;;;;;;;;;;5083587;28;20052;-83
2021/07/15 03:23:56;;;;;;;54.83;39.28;;;;;;;;;;5063119;28;20056;-82
2021/07/15 03:26:24;;;;;;;53.33;39.33;;;;;;;;;;5072566;28;20038;-83
2021/07/15 03:28:53;;;;;;;57.85;42.72;;;;;;;;;;5081691;28;20461;-83
2021/07/15 03:31:21;;;;;;;;;;;;;;;;;;5074910;28;20491;-83
2021/07/15 03:33:50;;;;;;;48.85;35.03;;;;;;;;;;5078634;28;19916;-83
2021/07/15 03:36:17;;;;;;;46.95;31.92;;;;;;;;;;5063171;28;20047;-84
2021/07/15 03:38:46;;;;;;;60.88;40.83;;;;;;;;;;5061522;28;20141;-83
2021/07/15 03:41:14;;;;;;;70.93;50.92;;;;;;;;;;5063287;28;20040;-83
2021/07/15 03:43:43;;;;;;;52.17;41.88;;;;;;;;;;5078001;28;20509;-83
2021/07/15 03:46:09;;;;;;;;;;;;;;;;;;5064211;28;20040;-83
2021/07/15 03:48:37;;;;;;;54.35;36.75;;;;;;;;;;5063338;28;19920;-83
2021/07/15 03:51:06;;;;;;;47.40;32.78;;;;;;;;;;5063046;28;20040;-84
2021/07/15 03:53:35;;;;;;;39.92;29.92;;;;;;;;;;5078455;28;20036;-83
2021/07/15 03:56:03;;;;;;;41.60;29.40;;;;;;;;;;5077971;28;20055;-83
2021/07/15 03:58:31;;;;;;;42.60;30.50;;;;;;;;;;5062864;28;20037;-84
2021/07/15 04:01:03;;;;;;;42.20;30.38;;;;;;;;;;5063084;28;20040;-83
2021/07/15 04:03:32;;;;;;;37.70;26.80;;;;;;;;;;5063228;28;20028;-84
2021/07/15 04:06:03;;;;;;;41.70;27.48;;;;;;;;;;5062757;28;20074;-84
2021/07/15 04:08:32;;;;;;;34.40;26.88;;;;;;;;;;5077756;28;20510;-83
2021/07/15 04:11:02;;;;;;;35.15;27.25;;;;;;;;;;5063023;28;20452;-84
2021/07/15 04:13:29;;;;;;;36.65;24.80;;;;;;;;;;5062863;28;20037;-83
2021/07/15 04:15:55;;;;;;;36.90;26.58;;;;;;;;;;5060894;28;20051;-83
2021/07/15 04:18:28;;;;;;;42.15;29.80;;;;;;;;;;5063273;28;20044;-83
2021/07/15 04:20:56;;;;;;;37.97;27.80;;;;;;;;;;5081543;28;20051;-83
2021/07/15 04:23:25;;;;;;;38.03;27.65;;;;;;;;;;5066553;28;20478;-83
2021/07/15 04:25:53;;;;;;;40.10;28.10;;;;;;;;;;5066254;28;20045;-82
2021/07/15 04:28:21;;;;;;;34.92;26.55;;;;;;;;;;5066858;28;20119;-83
2021/07/15 04:30:49;;;;;;;38.28;27.38;;;;;;;;;;5081836;28;20124;-83
2021/07/15 04:33:16;;;;;;;39.40;27.67;;;;;;;;;;5067022;28;20047;-84
2021/07/15 04:35:43;;;;;;;38.65;27.67;;;;;;;;;;5066909;28;20032;-83
2021/07/15 04:38:10;;;;;;;41.58;28.38;;;;;;;;;;5081510;28;20048;-83
2021/07/15 04:40:37;;;;;;;34.95;27.70;;;;;;;;;;5060852;28;20071;-84
2021/07/15 04:43:06;;;;;;;42.03;29.38;;;;;;;;;;5077330;28;20115;-85
2021/07/15 04:45:38;;;;;;;36.67;28.33;;;;;;;;;;5066466;28;20041;-83
2021/07/15 04:48:05;;;;;;;36.15;27.85;;;;;;;;;;5066190;28;20040;-84
2021/07/15 04:50:34;;;;;;;38.10;27.95;;;;;;;;;;5081246;28;20044;-84
2021/07/15 04:53:14;;;;;;;35.03;26.17;;;;;;;;;;5066498;28;20093;-84
2021/07/15 04:55:41;;;;;;;37.90;26.73;;;;;;;;;;5066439;28;20047;-83
2021/07/15 04:58:08;;;;;;;38.78;26.75;;;;;;;;;;5065435;28;20053;-84
2021/07/15 05:00:37;;;;;;;35.97;26.67;;;;;;;;;;5066586;28;20047;-84
2021/07/15 05:03:14;;;;;;;37.47;26.15;;;;;;;;;;5065795;28;20560;-84
2021/07/15 05:05:40;;;;;;;38.08;28.60;;;;;;;;;;5081398;28;20037;-83
2021/07/15 05:08:07;;;;;;;34.72;27.52;;;;;;;;;;5066218;28;20047;-82
2021/07/15 05:10:33;;;;;;;36.97;27.73;;;;;;;;;;5065996;28;20044;-83
2021/07/15 05:13:01;;;;;;;39.40;28.05;;;;;;;;;;5066317;28;20045;-84
2021/07/15 05:15:28;;;;;;;37.13;28.13;;;;;;;;;;5065501;28;20079;-83
2021/07/15 05:17:54;;;;;;;39.58;28.35;;;;;;;;;;5081232;28;20088;-84
2021/07/15 05:20:21;;;;;;;40.58;29.30;;;;;;;;;;5066166;28;20161;-82
2021/07/15 05:22:47;;;;;;;38.25;27.80;;;;;;;;;;5065689;28;20483;-83
2021/07/15 05:25:14;;;;;;;34.92;26.85;;;;;;;;;;5065776;28;20087;-85
2021/07/15 05:27:40;;;;;;;40.50;28.48;;;;;;;;;;5065142;28;20406;-84
2021/07/15 05:30:08;;;;;;;38.17;26.23;;;;;;;;;;5080388;28;20041;-84
2021/07/15 05:32:35;;;;;;;42.20;29.17;;;;;;;;;;5065447;28;20422;-84
2021/07/15 05:35:02;;;;;;;42.00;29.80;;;;;;;;;;5075603;28;20518;-81
2021/07/15 05:37:28;;;;;;;36.97;28.08;;;;;;;;;;5065704;28;20047;-82
2021/07/15 05:39:55;;;;;;;39.83;29.95;;;;;;;;;;5065436;28;20048;-82
2021/07/15 05:42:21;;;;;;;40.55;30.58;;;;;;;;;;5065008;28;20044;-82
2021/07/15 05:44:48;;;;;;;41.30;29.35;;;;;;;;;;5065735;28;20052;-82
2021/07/15 05:47:14;;;;;;;39.60;28.98;;;;;;;;;;5065393;28;20043;-82
2021/07/15 05:49:41;;;;;;;41.67;29.02;;;;;;;;;;5080533;28;20055;-82
2021/07/15 05:52:08;;;;;;;40.40;29.60;;;;;;;;;;5080168;28;20404;-82
2021/07/15 05:54:35;;;;;;;38.22;30.90;;;;;;;;;;5064884;28;20487;-83
2021/07/15 05:57:02;;;;;;;40.95;31.52;;;;;;;;;;5065332;28;20041;-82
2021/07/15 05:59:28;;;;;;;42.08;31.50;;;;;;;;;;5064714;28;20040;-83
2021/07/15 06:01:55;;;;;;;46.28;31.58;;;;;;;;;;5065328;28;20487;-82
2021/07/15 06:04:21;;;;;;;44.85;34.28;;;;;;;;;;5064790;28;20469;-83
2021/07/15 06:06:48;;;;;;;41.58;31.60;;;;;;;;;;5065311;28;20064;-82
2021/07/15 06:09:14;;;;;;;45.95;34.50;;;;;;;;;;5064922;28;20032;-82
2021/07/15 06:11:41;;;;;;;54.20;36.35;;;;;;;;;;5065082;28;22431;-83
2021/07/15 06:14:07;;;;;;;47.92;35.13;;;;;;;;;;5064894;28;20037;-82
2021/07/15 06:16:34;;;;;;;47.88;35.85;;;;;;;;;;5064657;28;20044;-84
2021/07/15 06:19:01;;;;;;;51.33;37.90;;;;;;;;;;5064613;28;20123;-83
2021/07/15 06:21:27;;;;;;;53.75;36.90;;;;;;;;;;5064830;28;20045;-83
2021/07/15 06:23:54;;;;;;;58.97;41.75;;;;;;;;;;5064525;28;20445;-82
2021/07/15 06:26:20;;;;;;;58.00;39.72;;;;;;;;;;5064765;28;20058;-83
2021/07/15 06:28:47;;;;;;;58.25;41.92;;;;;;;;;;5064488;28;20040;-83
2021/07/15 06:31:13;;;;;;;60.85;41.90;;;;;;;;;;5064651;28;20036;-82
2021/07/15 06:33:40;;;;;;;59.42;42.92;;;;;;;;;;5079546;28;20082;-83
2021/07/15 06:36:08;;;;;;;61.63;45.83;;;;;;;;;;5062990;28;20435;-83
2021/07/15 06:38:37;;;;;;;60.17;40.00;;;;;;;;;;5079378;28;20047;-83
2021/07/15 06:41:06;;;;;;;65.80;42.75;;;;;;;;;;5063652;28;20036;-83
2021/07/15 06:43:33;;;;;;;66.90;41.47;;;;;;;;;;5079716;28;20094;-82
2021/07/15 06:46:00;;;;;;;66.68;42.85;;;;;;;;;;5079319;28;20040;-83
2021/07/15 06:48:31;;;;;;;60.75;44.72;;;;;;;;;;5063752;28;20048;-82
2021/07/15 06:50:57;;;;;;;65.57;44.65;;;;;;;;;;5064817;28;21827;-82
2021/07/15 06:53:24;;;;;;;64.10;43.42;;;;;;;;;;5064073;28;20032;-83
2021/07/15 06:55:51;;;;;;;59.35;41.30;;;;;;;;;;5063952;28;20166;-82
2021/07/15 06:58:17;;;;;;;62.65;42.85;;;;;;;;;;5063454;28;20041;-82
2021/07/15 07:00:44;;;;;;;61.00;41.88;;;;;;;;;;5064085;28;20777;-82
2021/07/15 07:03:12;;;;;;;56.92;40.22;;;;;;;;;;5063636;28;20040;-82
2021/07/15 07:05:40;;;;;;;56.40;40.28;;;;;;;;;;5061914;28;20395;-82
2021/07/15 07:08:07;;;;;;;59.80;43.78;;;;;;;;;;5064035;28;20079;-82
2021/07/15 07:10:34;;;;;;;50.40;36.95;;;;;;;;;;5063906;28;20098;-82
2021/07/15 07:13:01;;;;;;;52.13;36.95;;;;;;;;;;5063238;28;20079;-83
2021/07/15 07:15:27;;;;;;;55.67;38.88;;;;;;;;;;5064116;28;20036;-83
2021/07/15 07:17:54;;;;;;;53.17;38.95;;;;;;;;;;5063085;28;20041;-82
2021/07/15 07:20:21;;;;;;;58.53;41.05;;;;;;;;;;5063587;28;20491;-82
2021/07/15 07:22:49;;;;;;;56.38;38.92;;;;;;;;;;5063299;28;20119;-82
2021/07/15 07:25:16;;;;;;;56.25;39.00;;;;;;;;;;5062354;28;20051;-82
2021/07/15 07:27:43;;;;;;;55.15;37.28;;;;;;;;;;5063840;28;20091;-82
2021/07/15 07:30:13;;;;;;;54.53;40.55;;;;;;;;;;5063178;28;20575;-82
2021/07/15 07:32:40;;;;;;;58.45;39.80;;;;;;;;;;5078056;28;20036;-82
2021/07/15 07:35:07;;;;;;;60.15;40.17;;;;;;;;;;5061918;28;20036;-82
2021/07/15 07:37:34;;;;;;;56.15;41.45;;;;;;;;;;5078508;28;20043;-82
2021/07/15 07:40:01;;;;;;;53.30;39.58;;;;;;;;;;5063692;28;20520;-82
2021/07/15 07:42:28;;;;;;;58.55;41.97;;;;;;;;;;5050507;28;20040;-82
2021/07/15 07:44:57;;;;;;;55.63;39.83;;;;;;;;;;5078098;28;20045;-82
2021/07/15 07:47:23;;;;;;;58.13;37.95;;;;;;;;;;5078084;28;20483;-83
2021/07/15 07:49:50;;;;;;;54.55;38.88;;;;;;;;;;5078760;28;20041;-82
2021/07/15 07:52:17;;;;;;;52.17;39.80;;;;;;;;;;5063294;28;20075;-82
2021/07/15 07:54:43;;;;;;;54.22;37.80;;;;;;;;;;5078384;28;20037;-82
2021/07/15 07:57:12;;;;;;;57.47;39.55;;;;;;;;;;5067688;28;20596;-83
2021/07/15 07:59:39;;;;;;;58.03;40.33;;;;;;;;;;5063355;28;20418;-82
2021/07/15 08:02:05;;;;;;;54.53;39.30;;;;;;;;;;5062994;28;20032;-82
2021/07/15 08:04:32;;;;;;;53.05;38.95;;;;;;;;;;5063212;28;20032;-82
2021/07/15 08:06:58;;;;;;;50.33;38.13;;;;;;;;;;5063033;28;20044;-82
2021/07/15 08:09:26;;;;;;;48.83;36.90;;;;;;;;;;5063396;28;20119;-82
2021/07/15 08:11:55;;;;;;;52.08;38.72;;;;;;;;;;5078141;28;20430;-82
2021/07/15 08:14:23;;;;;;;51.17;38.00;;;;;;;;;;5062704;28;20510;-82
2021/07/15 08:16:50;;;;;;;53.30;37.13;;;;;;;;;;5062887;28;20552;-83
2021/07/15 08:19:20;;;;;;;53.60;36.78;;;;;;;;;;5061200;28;20044;-81
2021/07/15 08:21:47;;;;;;;48.00;36.60;;;;;;;;;;5063125;28;20132;-82
2021/07/15 08:24:13;;;;;;;48.92;36.03;;;;;;;;;;5062471;28;20536;-82
2021/07/15 08:26:40;;;;;;;51.40;37.53;;;;;;;;;;5063087;28;20048;-82
2021/07/15 08:29:06;;;;;;;50.45;37.67;;;;;;;;;;5063130;28;20037;-82
2021/07/15 08:31:33;;;;;;;52.72;38.47;;;;;;;;;;5063267;28;20041;-82
2021/07/15 08:33:59;;;;;;;52.65;37.13;;;;;;;;;;5062403;28;20372;-83
2021/07/15 08:36:28;;;;;;;52.55;37.83;;;;;;;;;;5060616;28;20124;-82
2021/07/15 08:38:55;;;;;;;47.25;35.25;;;;;;;;;;5062621;28;20048;-82
2021/07/15 08:41:21;;;;;;;52.20;38.38;;;;;;;;;;5077327;28;20119;-82
2021/07/15 08:43:49;;;;;;;52.80;37.90;;;;;;;;;;5062642;28;20052;-82
2021/07/15 08:46:17;;;;;;;53.53;38.95;;;;;;;;;;5077486;28;20045;-83
2021/07/15 08:48:47;;;;;;;55.85;40.50;;;;;;;;;;5062863;28;20040;-82
2021/07/15 08:51:14;;;;;;;51.85;38.60;;;;;;;;;;5077663;28;20036;-82
2021/07/15 08:53:44;;;;;;;48.80;38.30;;;;;;;;;;5062895;28;20044;-82
2021/07/15 08:59:01;;;;;;;54.75;39.10;;;;;;;;;;5062315;28;20102;-82
2021/07/15 09:01:35;;;;;;;55.08;39.85;;;;;;;;;;5062486;28;20064;-82
2021/07/15 09:04:03;;;;;;;51.85;38.97;;;;;;;;;;5062586;28;20063;-82
2021/07/15 09:06:31;;;;;;;51.28;39.70;;;;;;;;;;5065218;28;20036;-82
2021/07/15 09:08:57;;;;;;;51.70;39.15;;;;;;;;;;5066290;28;20048;-82
2021/07/15 09:11:24;;;;;;;48.22;37.65;;;;;;;;;;5065439;28;20041;-82
2021/07/15 09:13:51;;;;;;;54.67;41.22;;;;;;;;;;5064538;28;20056;-83
2021/07/15 09:16:18;;;;;;;55.58;44.13;;;;;;;;;;5065340;28;20444;-82
2021/07/15 09:19:15;;;;;;;60.83;39.65;;;;;;;;;;5065339;28;20515;-82
2021/07/15 09:21:43;;;;;;;55.25;39.78;;;;;;;;;;5056074;28;20076;-82
2021/07/15 09:24:32;;;;;;;52.25;39.45;;;;;;;;;;5065567;28;20033;-82
2021/07/15 09:27:09;;;;;;;50.15;37.67;;;;;;;;;;5065497;28;20041;-82
2021/07/15 09:29:36;;;;;;;52.45;36.95;;;;;;;;;;5064118;28;20039;-82
2021/07/15 09:32:03;;;;;;;52.67;39.70;;;;;;;;;;5065205;28;20044;-83
2021/07/15 09:34:31;;;;;;;52.17;37.75;;;;;;;;;;5065839;28;20045;-83
2021/07/15 09:36:58;;;;;;;49.83;37.97;;;;;;;;;;5065210;28;20487;-82
2021/07/15 09:39:29;;;;;;;51.33;38.85;;;;;;;;;;5080355;28;20057;-83
2021/07/15 09:42:14;;;;;;;51.13;39.28;;;;;;;;;;5065659;28;20510;-82
2021/07/15 09:44:43;;;;;;;46.75;36.28;;;;;;;;;;5065649;28;20037;-82
2021/07/15 09:47:44;;;;;;;47.17;35.53;;;;;;;;;;5081473;28;20530;-81
2021/07/15 09:50:19;;;;;;;48.70;37.00;;;;;;;;;;5075930;28;20048;-82
2021/07/15 09:52:45;;;;;;;50.92;35.83;;;;;;;;;;5080008;28;20524;-82
2021/07/15 09:55:25;;;;;;;47.95;36.40;;;;;;;;;;5074502;28;20132;-82
2021/07/15 09:58:08;;;;;;;49.55;35.83;;;;;;;;;;5099699;28;20048;-82
2021/07/15 10:00:41;;;;;;;44.75;34.00;;;;;;;;;;5100228;28;20070;-81
2021/07/15 10:03:10;;;;;;;47.78;36.05;;;;;;;;;;5060954;28;20048;-81
2021/07/15 10:05:36;;;;;;;;;;;;;;;;;;5080562;28;20127;-82
2021/07/15 10:08:11;;;;;;;54.60;38.63;;;;;;;;;;5075239;28;19923;-82
2021/07/15 10:10:38;;;;;;;46.85;35.17;;;;;;;;;;5080603;28;20178;-81
2021/07/15 10:13:22;;;;;;;50.65;36.72;;;;;;;;;;5081841;28;20049;-84
2021/07/15 10:15:50;;;;;;;47.47;34.58;;;;;;;;;;5080583;28;20044;-82
2021/07/15 10:18:42;;;;;;;46.95;36.20;;;;;;;;;;5078173;28;20036;-82
2021/07/15 10:21:10;;;;;;;53.15;37.70;;;;;;;;;;5068412;28;20051;-81
2021/07/15 10:23:40;;;;;;;53.47;39.10;;;;;;;;;;5070587;28;20048;-83
2021/07/15 10:26:08;;;;;;;52.47;40.72;;;;;;;;;;5067997;28;20415;-82
2021/07/15 10:28:36;;;;;;;;;;;;;;;;;;5084258;28;20036;-81
2021/07/15 10:31:06;;;;;;;51.65;37.15;;;;;;;;;;5080853;28;19924;-81
2021/07/15 10:33:33;;;;;;;52.38;36.30;;;;;;;;;;5061170;28;20044;-79
2021/07/15 10:36:03;;;;;;;52.15;36.20;;;;;;;;;;5063975;28;20120;-80
2021/07/15 10:38:34;;;;;;;53.95;38.45;;;;;;;;;;5060601;28;20044;-81
2021/07/15 10:41:02;;;;;;;50.20;37.35;;;;;;;;;;5072674;28;20035;-81
2021/07/15 10:43:32;;;;;;;53.03;37.00;;;;;;;;;;5070566;28;20040;-81
2021/07/15 10:46:01;;;;;;;51.88;38.90;;;;;;;;;;5065428;28;20043;-81
2021/07/15 10:48:29;;;;;;;50.70;37.65;;;;;;;;;;5079904;28;20134;-81
2021/07/15 10:50:56;;;;;;;53.20;38.88;;;;;;;;;;5084018;28;20044;-81
2021/07/15 10:53:23;;;;;;;51.15;36.60;;;;;;;;;;5082866;28;20523;-81
2021/07/15 10:55:53;;;;;;;49.65;38.42;;;;;;;;;;5058674;28;20047;-83
2021/07/15 10:58:43;;;;;;;52.35;37.40;;;;;;;;;;5064529;28;20041;-82
2021/07/15 11:01:42;;;;;;;51.35;37.38;;;;;;;;;;5058405;28;20777;-84
2021/07/15 11:04:10;;;;;;;52.25;37.60;;;;;;;;;;5080122;28;20055;-83
2021/07/15 11:06:45;;;;;;;54.78;38.33;;;;;;;;;;5099776;28;20088;-90
2021/07/15 11:09:33;;;;;;;50.05;35.85;;;;;;;;;;5096035;28;20067;-92
2021/07/15 11:12:01;;;;;;;52.85;37.22;;;;;;;;;;5096298;27;20521;-88
2021/07/15 11:14:35;;;;;;;;;;;;;;;;;;5115730;27;20046;-87
2021/07/15 11:17:22;;;;;;;47.90;36.47;;;;;;;;;;5103071;27;19927;-87
2021/07/15 11:20:07;;;;;;;50.10;36.67;;;;;;;;;;5059974;28;20044;-83
2021/07/15 11:22:52;;;;;;;49.63;36.05;;;;;;;;;;5082309;28;20488;-84
2021/07/15 11:25:39;;;;;;;49.53;37.03;;;;;;;;;;5066301;28;20119;-84
2021/07/15 11:28:20;;;;;;;51.60;36.60;;;;;;;;;;5073338;28;20044;-82
2021/07/15 11:30:57;;;;;;;;;;;;;;;;;;5054358;28;20104;-83
2021/07/15 11:33:30;;;;;;;50.70;36.17;;;;;;;;;;5051528;28;20843;-83
2021/07/15 11:36:04;;;;;;;48.35;36.50;;;;;;;;;;5068137;27;20110;-83
2021/07/15 11:38:33;;;;;;;55.20;37.63;;;;;;;;;;5069920;28;20037;-82
2021/07/15 11:41:03;;;;;;;51.53;36.63;;;;;;;;;;5060902;28;20514;-81
2021/07/15 11:43:51;;;;;;;51.33;37.30;;;;;;;;;;5059271;28;20108;-83
2021/07/15 11:46:25;;;;;;;53.13;36.33;;;;;;;;;;5040414;28;20035;-83
2021/07/15 11:49:07;;;;;;;52.03;37.00;;;;;;;;;;5090263;28;20036;-83
2021/07/15 11:51:48;;;;;;;50.25;36.47;;;;;;;;;;5071891;28;20050;-83
2021/07/15 11:54:45;;;;;;;54.00;38.90;;;;;;;;;;5080410;28;20773;-83
2021/07/15 11:57:19;;;;;;;53.00;37.33;;;;;;;;;;5067802;28;20038;-83
2021/07/15 11:59:51;;;;;;;52.90;38.28;;;;;;;;;;5069908;28;20063;-84
2021/07/15 12:02:39;;;;;;;51.40;35.30;;;;;;;;;;5077142;28;20156;-84
2021/07/15 12:05:11;;;;;;;53.05;38.47;;;;;;;;;;5045473;28;20098;-83
2021/07/15 12:07:50;;;;;;;53.20;39.13;;;;;;;;;;5043632;28;20050;-86
2021/07/15 12:10:25;;;;;;;53.50;39.40;;;;;;;;;;5061338;27;20124;-84
2021/07/15 12:12:58;;;;;;;57.60;41.05;;;;;;;;;;5018585;28;20115;-84
2021/07/15 12:15:27;;;;;;;54.55;38.90;;;;;;;;;;5041735;28;20036;-84
2021/07/15 12:18:01;;;;;;;55.92;40.35;;;;;;;;;;5002837;27;20474;-84
2021/07/15 12:20:44;;;;;;;56.70;39.88;;;;;;;;;;5005844;28;20047;-84
2021/07/15 12:23:23;;;;;;;54.17;38.25;;;;;;;;;;5049287;27;20051;-84
2021/07/15 12:25:52;;;;;;;48.72;36.33;;;;;;;;;;5078518;28;20034;-84
2021/07/15 12:28:25;;;;;;;48.83;36.90;;;;;;;;;;5056320;27;20081;-84
2021/07/15 12:30:55;;;;;;;47.58;37.42;;;;;;;;;;5058796;28;20048;-83
2021/07/15 12:33:34;;;;;;;49.65;36.15;;;;;;;;;;5064421;28;20048;-85
2021/07/15 12:36:09;;;;;;;52.35;38.83;;;;;;;;;;5057135;28;20043;-84
2021/07/15 12:38:36;;;;;;;49.45;37.13;;;;;;;;;;5072969;28;20043;-84
2021/07/15 12:41:10;;;;;;;49.45;37.92;;;;;;;;;;5049858;27;20039;-83
2021/07/15 12:43:49;;;;;;;45.80;36.92;;;;;;;;;;5082530;27;20036;-84
2021/07/15 12:46:19;;;;;;;50.63;36.97;;;;;;;;;;5054889;28;20414;-85
2021/07/15 12:48:50;;;;;;;51.78;39.33;;;;;;;;;;5080444;28;20414;-84
2021/07/15 12:51:19;;;;;;;52.05;38.55;;;;;;;;;;5050753;28;20036;-84
2021/07/15 12:53:49;;;;;;;52.35;37.50;;;;;;;;;;5068101;28;20047;-84
2021/07/15 12:56:23;;;;;;;53.30;37.53;;;;;;;;;;5069003;28;20043;-83
2021/07/15 12:58:58;;;;;;;52.05;38.55;;;;;;;;;;5071512;28;20096;-83
2021/07/15 13:01:27;;;;;;;49.47;36.10;;;;;;;;;;5047094;28;20143;-84
2021/07/15 13:04:18;;;;;;;54.70;38.63;;;;;;;;;;5071230;28;20481;-85
2021/07/15 13:06:56;;;;;;;50.75;37.58;;;;;;;;;;5091226;27;20031;-84
2021/07/15 13:09:45;;;;;;;46.42;35.42;;;;;;;;;;5071258;27;20027;-84
2021/07/15 13:15:12;;;;;;;54.65;40.72;;;;;;;;;;5082538;27;20042;-84
2021/07/15 13:17:45;;;;;;;57.95;42.85;;;;;;;;;;5079651;27;20136;-84
2021/07/15 13:20:17;;;;;;;69.65;50.42;;;;;;;;;;5054724;27;20473;-83
2021/07/15 13:22:49;;;;;;;61.13;44.40;;;;;;;;;;5066697;27;20111;-84
2021/07/15 13:25:19;;;;;;;55.55;42.13;;;;;;;;;;5022258;27;20036;-84
2021/07/15 13:27:52;;;;;;;56.78;41.45;;;;;;;;;;5066854;27;20074;-84
2021/07/15 13:30:23;;;;;;;57.70;42.92;;;;;;;;;;5054249;27;20039;-85
2021/07/15 13:32:52;;;;;;;54.25;39.38;;;;;;;;;;5067390;27;20039;-86
2021/07/15 13:35:23;;;;;;;50.78;40.45;;;;;;;;;;5031660;27;20397;-84
2021/07/15 13:37:51;;;;;;;53.00;40.42;;;;;;;;;;5009868;27;20131;-84
2021/07/15 13:40:25;;;;;;;48.45;36.90;;;;;;;;;;4961200;28;20548;-85
2021/07/15 13:43:07;;;;;;;45.47;33.45;;;;;;;;;;5053136;27;20088;-84
2021/07/15 13:45:37;;;;;;;47.03;34.60;;;;;;;;;;5016044;28;20039;-85
2021/07/15 13:48:16;;;;;;;48.33;35.00;;;;;;;;;;5029854;27;20083;-84
2021/07/15 13:50:49;;;;;;;44.70;35.13;;;;;;;;;;4992845;28;20040;-84
2021/07/15 13:53:27;;;;;;;49.63;35.05;;;;;;;;;;4998955;28;20040;-84
2021/07/15 13:56:00;;;;;;;48.55;34.90;;;;;;;;;;5018190;28;20066;-85
2021/07/15 14:05:52;;;;;;;50.22;34.05;;;;;;;;;;5818881;22;20056;-82
2021/07/15 14:08:19;;;;;;;51.47;36.20;;;;;;;;;;5059939;28;20044;-84
2021/07/15 14:10:48;;;;;;;46.33;35.42;;;;;;;;;;4996992;28;20103;-84
2021/07/15 14:13:18;;;;;;;49.08;37.20;;;;;;;;;;5004504;28;20495;-83
2021/07/15 14:15:46;;;;;;;49.78;37.33;;;;;;;;;;5040221;28;20055;-84
2021/07/15 14:18:22;;;;;;;44.78;34.22;;;;;;;;;;5033649;28;20062;-83
2021/07/15 14:20:52;;;;;;;48.10;36.03;;;;;;;;;;5012908;28;20050;-87
2021/07/15 14:23:28;;;;;;;48.83;37.80;;;;;;;;;;5029951;28;20094;-83
2021/07/15 14:26:03;;;;;;;48.10;35.00;;;;;;;;;;4990624;28;20526;-83
2021/07/15 14:28:29;;;;;;;49.17;34.15;;;;;;;;;;5030769;28;20041;-83
2021/07/15 14:30:56;;;;;;;44.95;33.85;;;;;;;;;;5017245;28;20130;-82
2021/07/15 14:33:23;;;;;;;39.42;33.05;;;;;;;;;;5005302;28;20041;-83
2021/07/15 14:35:51;;;;;;;42.47;33.10;;;;;;;;;;5020276;28;20041;-82
2021/07/15 14:38:19;;;;;;;40.33;30.42;;;;;;;;;;4970432;28;20036;-83
2021/07/15 14:40:47;;;;;;;41.40;28.67;;;;;;;;;;5010423;28;20087;-83
2021/07/15 14:43:14;;;;;;;37.88;30.80;;;;;;;;;;5014216;28;20047;-83
2021/07/15 14:45:41;;;;;;;38.97;28.95;;;;;;;;;;4988593;28;20123;-83
2021/07/15 14:48:10;;;;;;;39.65;29.63;;;;;;;;;;5035005;28;20044;-83
2021/07/15 14:50:38;;;;;;;36.15;27.25;;;;;;;;;;5001944;28;20520;-83